createdAt,value
2022-12-26T00:01:45.150Z,11.38
2022-12-26T00:04:51.541Z,11.43
2022-12-26T00:06:58.359Z,11.33
2022-12-26T00:09:24.762Z,11.23
2022-12-26T00:11:51.394Z,11.17
2022-12-26T00:14:17.823Z,11.11
2022-12-26T00:16:45.861Z,11.03
2022-12-26T00:19:13.055Z,11.00
2022-12-26T00:21:39.484Z,10.89
2022-12-26T00:24:06.210Z,10.93
2022-12-26T00:26:33.644Z,10.86
2022-12-26T00:29:00.161Z,10.80
2022-12-26T00:31:29.714Z,10.80
2022-12-26T00:33:56.536Z,10.82
2022-12-26T00:36:29.704Z,10.79
2022-12-26T00:38:58.512Z,10.76
2022-12-26T00:41:25.116Z,10.59
2022-12-26T00:43:51.586Z,10.69
2022-12-26T00:46:18.740Z,10.69
2022-12-26T00:48:45.354Z,10.70
2022-12-26T00:51:11.823Z,10.65
2022-12-26T00:53:38.701Z,10.67
2022-12-26T00:56:05.528Z,10.69
2022-12-26T00:58:32.170Z,10.62
2022-12-26T01:01:12.760Z,10.77
2022-12-26T01:03:39.962Z,10.75
2022-12-26T01:06:06.859Z,10.75
2022-12-26T01:08:33.543Z,10.78
2022-12-26T01:11:05.100Z,10.71
2022-12-26T01:13:31.752Z,10.76
2022-12-26T01:15:58.519Z,10.74
2022-12-26T01:18:25.293Z,10.80
2022-12-26T01:20:52.196Z,10.87
2022-12-26T01:23:18.708Z,10.85
2022-12-26T01:26:15.737Z,10.84
2022-12-26T01:28:31.854Z,10.83
2022-12-26T01:31:04.693Z,10.89
2022-12-26T01:33:34.305Z,10.79
2022-12-26T01:36:00.898Z,10.84
2022-12-26T01:38:28.272Z,10.79
2022-12-26T01:41:14.674Z,10.78
2022-12-26T01:43:53.197Z,10.74
2022-12-26T01:46:24.300Z,10.66
2022-12-26T01:48:51.770Z,10.64
2022-12-26T01:51:20.693Z,10.64
2022-12-26T01:53:50.504Z,10.67
2022-12-26T01:56:23.627Z,10.71
2022-12-26T01:58:55.806Z,10.74
2022-12-26T02:01:27.977Z,10.80
2022-12-26T02:04:13.261Z,10.76
2022-12-26T02:06:41.358Z,10.81
2022-12-26T02:09:09.096Z,10.78
2022-12-26T02:11:40.259Z,10.85
2022-12-26T02:14:08.374Z,10.79
2022-12-26T02:16:37.004Z,10.91
2022-12-26T02:19:06.634Z,10.93
2022-12-26T02:21:33.013Z,10.91
2022-12-26T02:24:44.076Z,10.89
2022-12-26T02:27:37.213Z,10.78
2022-12-26T02:30:42.165Z,10.80
2022-12-26T02:33:35.195Z,10.84
2022-12-26T02:36:16.751Z,10.71
2022-12-26T02:39:03.402Z,10.68
2022-12-26T02:42:03.290Z,10.69
2022-12-26T02:45:05.323Z,10.70
2022-12-26T02:48:14.787Z,10.77
2022-12-26T02:51:55.257Z,10.87
2022-12-26T02:54:50.831Z,10.70
2022-12-26T02:57:40.555Z,10.70
2022-12-26T03:00:31.758Z,10.76
2022-12-26T03:03:29.261Z,10.91
2022-12-26T03:06:26.463Z,10.91
2022-12-26T03:09:34.674Z,10.92
2022-12-26T03:12:31.875Z,10.85
2022-12-26T03:15:02.865Z,10.86
2022-12-26T03:17:35.740Z,10.97
2022-12-26T03:20:05.599Z,11.00
2022-12-26T03:22:39.682Z,10.94
2022-12-26T03:25:30.802Z,11.00
2022-12-26T03:27:57.395Z,11.10
2022-12-26T03:30:43.076Z,11.09
2022-12-26T03:33:29.692Z,11.15
2022-12-26T03:35:56.858Z,11.14
2022-12-26T03:38:33.812Z,11.14
2022-12-26T03:41:31.446Z,11.14
2022-12-26T03:44:22.732Z,11.06
2022-12-26T03:47:35.605Z,11.12
2022-12-26T03:50:30.380Z,11.16
2022-12-26T03:53:35.300Z,11.15
2022-12-26T03:56:32.862Z,11.07
2022-12-26T03:59:29.325Z,11.15
2022-12-26T04:02:20.096Z,11.26
2022-12-26T04:05:05.443Z,11.18
2022-12-26T04:07:56.654Z,11.22
2022-12-26T04:11:04.144Z,11.09
2022-12-26T04:14:08.016Z,11.12
2022-12-26T04:16:59.820Z,11.04
2022-12-26T04:19:42.479Z,11.02
2022-12-26T04:22:56.341Z,11.01
2022-12-26T04:25:48.745Z,10.92
2022-12-26T04:28:37.130Z,11.01
2022-12-26T04:31:29.682Z,11.05
2022-12-26T04:34:23.653Z,11.07
2022-12-26T04:37:16.410Z,10.97
2022-12-26T04:40:06.955Z,11.07
2022-12-26T04:42:53.689Z,11.02
2022-12-26T04:45:21.806Z,11.02
2022-12-26T04:48:09.002Z,11.01
2022-12-26T04:50:35.605Z,11.06
2022-12-26T04:53:02.186Z,11.11
2022-12-26T04:55:31.093Z,11.04
2022-12-26T04:57:57.971Z,11.05
2022-12-26T05:00:26.030Z,11.00
2022-12-26T05:03:17.975Z,11.10
2022-12-26T05:06:06.882Z,10.95
2022-12-26T05:08:55.785Z,10.94
2022-12-26T05:11:22.402Z,10.92
2022-12-26T05:13:56.619Z,10.86
2022-12-26T05:16:42.449Z,10.91
2022-12-26T05:19:32.743Z,10.89
2022-12-26T05:22:19.279Z,10.85
2022-12-26T05:25:05.172Z,10.93
2022-12-26T05:27:56.036Z,10.86
2022-12-26T05:30:23.325Z,10.86
2022-12-26T05:33:08.449Z,10.88
2022-12-26T05:35:35.789Z,10.66
2022-12-26T05:38:03.611Z,10.72
2022-12-26T05:40:30.451Z,10.70
2022-12-26T05:42:57.319Z,10.62
2022-12-26T05:45:24.036Z,10.57
2022-12-26T05:47:52.159Z,10.66
2022-12-26T05:50:19.319Z,10.67
2022-12-26T05:52:46.015Z,10.58
2022-12-26T05:55:12.833Z,10.63
2022-12-26T05:57:39.368Z,10.68
2022-12-26T06:00:06.629Z,10.64
2022-12-26T06:02:33.251Z,10.63
2022-12-26T06:04:59.928Z,10.64
2022-12-26T06:07:27.411Z,10.60
2022-12-26T06:09:54.071Z,10.54
2022-12-26T06:12:20.672Z,10.52
2022-12-26T06:14:47.210Z,10.57
2022-12-26T06:17:14.781Z,10.55
2022-12-26T06:19:46.538Z,10.61
2022-12-26T06:22:13.384Z,10.69
2022-12-26T06:24:39.840Z,10.64
2022-12-26T06:27:06.293Z,10.78
2022-12-26T06:29:32.738Z,10.77
2022-12-26T06:31:59.367Z,10.63
2022-12-26T06:34:27.723Z,10.71
2022-12-26T06:36:55.567Z,10.86
2022-12-26T06:39:23.395Z,10.74
2022-12-26T06:41:50.182Z,10.77
2022-12-26T06:44:18.735Z,10.77
2022-12-26T06:46:45.818Z,10.69
2022-12-26T06:49:12.456Z,10.63
2022-12-26T06:51:39.046Z,10.70
2022-12-26T06:54:05.537Z,10.64
2022-12-26T06:56:32.873Z,10.78
2022-12-26T06:59:02.625Z,10.67
2022-12-26T07:01:31.738Z,10.73
2022-12-26T07:03:58.876Z,10.89
2022-12-26T07:06:31.929Z,10.83
2022-12-26T07:09:06.428Z,10.85
2022-12-26T07:11:36.153Z,10.89
2022-12-26T07:14:02.871Z,10.89
2022-12-26T07:16:29.377Z,10.87
2022-12-26T07:18:57.082Z,10.82
2022-12-26T07:21:25.535Z,10.79
2022-12-26T07:23:53.216Z,10.87
2022-12-26T07:26:21.870Z,10.98
2022-12-26T07:28:48.325Z,10.98
2022-12-26T07:31:17.652Z,10.93
2022-12-26T07:33:48.776Z,10.92
2022-12-26T07:36:15.534Z,10.88
2022-12-26T07:38:44.103Z,10.94
2022-12-26T07:41:41.076Z,10.92
2022-12-26T07:44:09.683Z,10.89
2022-12-26T07:46:36.193Z,11.00
2022-12-26T07:49:03.445Z,11.08
2022-12-26T07:51:29.929Z,11.08
2022-12-26T07:53:56.834Z,11.07
2022-12-26T07:56:23.400Z,11.10
2022-12-26T07:58:50.847Z,11.14
2022-12-26T08:01:18.160Z,11.15
2022-12-26T08:03:45.126Z,11.22
2022-12-26T08:06:12.140Z,11.25
2022-12-26T08:08:39.025Z,11.26
2022-12-26T08:11:07.865Z,11.26
2022-12-26T08:13:35.145Z,11.17
2022-12-26T08:16:10.398Z,11.16
2022-12-26T08:18:36.855Z,11.17
2022-12-26T08:21:03.638Z,11.24
2022-12-26T08:23:30.663Z,11.23
2022-12-26T08:25:57.099Z,11.15
2022-12-26T08:28:23.883Z,11.18
2022-12-26T08:30:50.560Z,11.21
2022-12-26T08:33:17.112Z,11.24
2022-12-26T08:35:44.204Z,11.30
2022-12-26T08:38:10.754Z,11.24
2022-12-26T08:40:45.315Z,11.25
2022-12-26T08:43:30.326Z,11.31
2022-12-26T08:46:01.172Z,11.27
2022-12-26T08:48:27.857Z,11.37
2022-12-26T08:51:12.913Z,11.45
2022-12-26T08:53:39.606Z,11.44
2022-12-26T08:56:13.061Z,11.39
2022-12-26T08:58:41.979Z,11.50
2022-12-26T09:01:10.334Z,11.45
2022-12-26T09:03:38.207Z,11.43
2022-12-26T09:06:06.539Z,11.44
2022-12-26T09:08:35.036Z,11.40
2022-12-26T09:11:03.980Z,11.35
2022-12-26T09:13:31.099Z,11.36
2022-12-26T09:16:05.258Z,11.31
2022-12-26T09:18:31.878Z,11.39
2022-12-26T09:21:02.851Z,11.49
2022-12-26T09:23:29.483Z,11.46
2022-12-26T09:25:56.659Z,11.44
2022-12-26T09:28:23.136Z,11.48
2022-12-26T09:30:49.660Z,11.47
2022-12-26T09:33:16.301Z,11.45
2022-12-26T09:35:46.030Z,11.47
2022-12-26T09:38:12.494Z,11.50
2022-12-26T09:40:50.161Z,11.56
2022-12-26T09:43:29.681Z,11.60
2022-12-26T09:46:29.492Z,11.57
2022-12-26T09:49:10.194Z,11.63
2022-12-26T09:51:41.605Z,11.63
2022-12-26T09:54:19.200Z,11.55
2022-12-26T09:57:02.380Z,11.62
2022-12-26T09:59:33.086Z,11.52
2022-12-26T10:01:59.679Z,11.62
2022-12-26T10:04:34.201Z,11.56
2022-12-26T10:07:29.212Z,11.70
2022-12-26T10:10:14.313Z,11.66
2022-12-26T10:12:59.086Z,11.59
2022-12-26T10:15:49.497Z,11.58
2022-12-26T10:18:46.938Z,11.51
2022-12-26T10:21:34.690Z,11.41
2022-12-26T10:24:20.101Z,11.42
2022-12-26T10:26:55.865Z,10.90
2022-12-26T10:29:28.326Z,10.50
2022-12-26T10:32:00.375Z,10.19
2022-12-26T10:34:37.067Z,9.96
2022-12-26T10:37:22.311Z,9.92
2022-12-26T10:39:56.764Z,9.91
2022-12-26T10:42:36.147Z,9.88
2022-12-26T10:45:12.419Z,9.87
2022-12-26T10:47:42.006Z,9.72
2022-12-26T10:50:16.883Z,9.82
2022-12-26T10:52:52.545Z,9.70
2022-12-26T10:55:29.652Z,9.69
2022-12-26T10:58:15.298Z,9.43
2022-12-26T11:00:42.026Z,9.45
2022-12-26T11:03:11.197Z,9.39
2022-12-26T11:08:42.978Z,9.24
2022-12-26T11:11:22.579Z,9.23
2022-12-26T11:14:01.358Z,9.26
2022-12-26T11:16:34.937Z,9.27
2022-12-26T11:19:01.883Z,9.16
2022-12-26T11:21:30.334Z,9.14
2022-12-26T11:24:22.163Z,9.14
2022-12-26T11:26:49.040Z,9.10
2022-12-26T11:29:21.331Z,9.15
2022-12-26T11:31:56.400Z,9.10
2022-12-26T11:34:55.334Z,9.14
2022-12-26T11:37:37.507Z,9.13
2022-12-26T11:40:04.916Z,9.13
2022-12-26T11:42:33.359Z,9.18
2022-12-26T11:45:03.844Z,9.23
2022-12-26T11:47:30.584Z,9.22
2022-12-26T11:50:21.266Z,9.24
2022-12-26T11:52:57.456Z,9.21
2022-12-26T11:55:24.217Z,9.30
2022-12-26T11:58:01.805Z,9.34
2022-12-26T12:00:37.155Z,9.39
2022-12-26T12:03:16.368Z,9.45
2022-12-26T12:06:02.523Z,9.41
2022-12-26T12:08:49.892Z,9.45
2022-12-26T12:11:28.621Z,9.54
2022-12-26T12:14:09.651Z,9.59
2022-12-26T12:16:55.533Z,9.51
2022-12-26T12:20:00.806Z,9.56
2022-12-26T12:22:45.791Z,9.65
2022-12-26T12:25:35.674Z,9.63
2022-12-26T12:28:08.672Z,9.71
2022-12-26T12:30:53.021Z,9.76
2022-12-26T12:33:38.767Z,9.72
2022-12-26T12:36:17.835Z,9.73
2022-12-26T12:38:58.093Z,9.90
2022-12-26T12:41:30.911Z,9.81
2022-12-26T12:44:16.753Z,9.95
2022-12-26T12:46:55.463Z,9.91
2022-12-26T12:49:35.049Z,9.90
2022-12-26T12:52:10.335Z,9.89
2022-12-26T12:55:15.315Z,10.01
2022-12-26T12:58:09.652Z,10.15
2022-12-26T13:00:54.195Z,10.08
2022-12-26T13:03:48.898Z,10.14
2022-12-26T13:06:25.469Z,10.13
2022-12-26T13:09:05.097Z,10.14
2022-12-26T13:11:44.645Z,10.30
2022-12-26T13:14:24.905Z,10.21
2022-12-26T13:17:03.414Z,10.18
2022-12-26T13:19:50.032Z,10.29
2022-12-26T13:22:50.319Z,10.27
2022-12-26T13:25:19.050Z,10.21
2022-12-26T13:27:51.472Z,10.15
2022-12-26T13:30:18.281Z,10.26
2022-12-26T13:32:47.322Z,10.26
2022-12-26T13:35:52.706Z,10.31
2022-12-26T13:38:40.708Z,10.31
2022-12-26T13:41:25.748Z,10.34
2022-12-26T13:44:07.976Z,10.25
2022-12-26T13:46:40.545Z,10.42
2022-12-26T13:49:36.897Z,10.36
2022-12-26T13:52:12.438Z,10.37
2022-12-26T13:54:55.395Z,10.44
2022-12-26T13:57:44.971Z,10.39
2022-12-26T14:00:40.696Z,10.42
2022-12-26T14:03:32.123Z,10.48
2022-12-26T14:06:31.070Z,10.51
2022-12-26T14:09:10.944Z,10.46
2022-12-26T14:12:24.989Z,10.41
2022-12-26T14:15:09.868Z,10.46
2022-12-26T14:17:36.251Z,10.39
2022-12-26T14:20:15.852Z,10.34
2022-12-26T14:22:48.405Z,10.31
2022-12-26T14:25:25.803Z,10.20
2022-12-26T14:27:56.415Z,10.10
2022-12-26T14:30:35.619Z,10.21
2022-12-26T14:33:23.518Z,10.15
2022-12-26T14:35:53.092Z,10.18
2022-12-26T14:38:47.827Z,10.20
2022-12-26T14:41:36.057Z,10.19
2022-12-26T14:44:37.630Z,10.19
2022-12-26T14:47:05.312Z,10.16
2022-12-26T14:49:35.516Z,10.13
2022-12-26T14:52:32.218Z,10.09
2022-12-26T14:55:38.668Z,10.11
2022-12-26T14:58:29.894Z,10.14
2022-12-26T15:01:18.165Z,10.11
2022-12-26T15:04:06.065Z,10.20
2022-12-26T15:07:02.741Z,10.14
2022-12-26T15:09:44.559Z,10.19
2022-12-26T15:12:19.207Z,10.25
2022-12-26T15:15:04.780Z,10.18
2022-12-26T15:17:45.282Z,10.17
2022-12-26T15:20:30.109Z,10.11
2022-12-26T15:23:17.589Z,9.92
2022-12-26T15:25:57.936Z,9.99
2022-12-26T15:28:47.450Z,9.97
2022-12-26T15:31:33.003Z,10.03
2022-12-26T15:34:11.863Z,10.02
2022-12-26T15:36:52.301Z,10.05
2022-12-26T15:39:30.486Z,10.11
2022-12-26T15:42:14.018Z,10.06
2022-12-26T15:45:19.611Z,10.14
2022-12-26T15:47:52.128Z,10.03
2022-12-26T15:50:29.341Z,9.89
2022-12-26T15:52:57.339Z,9.92
2022-12-26T15:56:01.708Z,9.89
2022-12-26T15:59:19.287Z,9.94
2022-12-26T16:01:50.995Z,9.86
2022-12-26T16:04:46.927Z,9.85
2022-12-26T16:07:37.876Z,9.75
2022-12-26T16:10:27.726Z,9.74
2022-12-26T16:13:06.359Z,9.65
2022-12-26T16:15:33.646Z,9.71
2022-12-26T16:18:25.982Z,9.70
2022-12-26T16:21:14.188Z,9.69
2022-12-26T16:23:46.603Z,9.68
2022-12-26T16:26:40.914Z,9.61
2022-12-26T16:29:23.315Z,9.46
2022-12-26T16:31:50.027Z,9.40
2022-12-26T16:34:19.656Z,9.38
2022-12-26T16:36:49.255Z,9.40
2022-12-26T16:39:23.584Z,9.40
2022-12-26T16:42:01.792Z,9.61
2022-12-26T16:44:38.353Z,9.59
2022-12-26T16:47:13.289Z,9.63
2022-12-26T16:49:43.508Z,9.65
2022-12-26T16:52:33.507Z,9.63
2022-12-26T16:55:24.143Z,9.69
2022-12-26T16:57:53.776Z,9.65
2022-12-26T17:00:21.311Z,9.58
2022-12-26T17:02:55.943Z,9.63
2022-12-26T17:05:27.085Z,9.59
2022-12-26T17:07:55.942Z,9.50
2022-12-26T17:10:34.989Z,9.59
2022-12-26T17:13:08.570Z,9.56
2022-12-26T17:15:40.809Z,9.60
2022-12-26T17:18:36.032Z,9.71
2022-12-26T17:21:38.144Z,9.66
2022-12-26T17:24:12.065Z,9.58
2022-12-26T17:26:40.855Z,9.52
2022-12-26T17:29:49.490Z,9.51
2022-12-26T17:32:32.227Z,9.42
2022-12-26T17:35:11.044Z,9.42
2022-12-26T17:37:44.920Z,9.37
2022-12-26T17:40:16.552Z,9.39
2022-12-26T17:42:57.576Z,9.36
2022-12-26T17:45:27.069Z,9.36
2022-12-26T17:47:55.223Z,9.36
2022-12-26T17:50:24.651Z,9.32
2022-12-26T17:52:51.811Z,9.20
2022-12-26T17:55:27.427Z,9.02
2022-12-26T17:57:56.860Z,8.81
2022-12-26T18:00:26.448Z,8.74
2022-12-26T18:02:53.796Z,8.61
2022-12-26T18:05:21.102Z,8.41
2022-12-26T18:07:50.803Z,8.48
2022-12-26T18:10:21.021Z,8.22
2022-12-26T18:12:47.965Z,8.17
2022-12-26T18:15:15.141Z,8.12
2022-12-26T18:17:51.070Z,8.01
2022-12-26T18:20:26.805Z,7.99
2022-12-26T18:22:53.585Z,8.00
2022-12-26T18:25:29.245Z,7.95
2022-12-26T18:27:56.245Z,7.85
2022-12-26T18:30:25.234Z,7.79
2022-12-26T18:32:53.416Z,7.66
2022-12-26T18:35:28.001Z,7.67
2022-12-26T18:37:54.670Z,7.58
2022-12-26T18:40:40.180Z,7.56
2022-12-26T18:43:08.607Z,7.51
2022-12-26T18:45:38.595Z,7.43
2022-12-26T18:48:07.031Z,7.63
2022-12-26T18:50:34.902Z,7.50
2022-12-26T18:53:10.802Z,7.44
2022-12-26T18:55:37.934Z,7.40
2022-12-26T18:58:04.894Z,7.45
2022-12-26T19:00:31.903Z,7.48
2022-12-26T19:02:58.862Z,7.38
2022-12-26T19:05:34.385Z,7.44
2022-12-26T19:08:04.815Z,7.37
2022-12-26T19:10:34.139Z,7.28
2022-12-26T19:13:14.030Z,7.35
2022-12-26T19:15:48.646Z,7.36
2022-12-26T19:18:15.561Z,7.37
2022-12-26T19:20:53.324Z,7.29
2022-12-26T19:23:20.087Z,7.37
2022-12-26T19:25:46.805Z,7.31
2022-12-26T19:28:13.486Z,7.30
2022-12-26T19:30:40.109Z,7.24
2022-12-26T19:33:16.392Z,7.30
2022-12-26T19:35:42.928Z,7.28
2022-12-26T19:38:09.446Z,7.21
2022-12-26T19:40:36.043Z,7.21
2022-12-26T19:43:02.835Z,7.18
2022-12-26T19:45:36.793Z,7.24
2022-12-26T19:48:03.467Z,7.31
2022-12-26T19:50:30.380Z,7.26
2022-12-26T19:52:57.051Z,7.29
2022-12-26T19:55:23.937Z,7.32
2022-12-26T19:57:57.933Z,7.24
2022-12-26T20:00:27.020Z,7.25
2022-12-26T20:03:01.207Z,6.98
2022-12-26T20:05:27.866Z,6.57
2022-12-26T20:08:02.396Z,6.32
2022-12-26T20:10:28.976Z,6.21
2022-12-26T20:12:55.731Z,6.19
2022-12-26T20:15:22.301Z,6.13
2022-12-26T20:17:49.327Z,6.05
2022-12-26T20:20:23.714Z,5.99
2022-12-26T20:22:53.183Z,5.96
2022-12-26T20:25:20.122Z,5.90
2022-12-26T20:27:46.816Z,5.82
2022-12-26T20:30:13.348Z,5.82
2022-12-26T20:32:44.068Z,5.75
2022-12-26T20:35:10.682Z,5.78
2022-12-26T20:37:37.290Z,5.87
2022-12-26T20:40:04.234Z,5.76
2022-12-26T20:42:30.857Z,5.81
2022-12-26T20:44:57.434Z,5.77
2022-12-26T20:47:27.035Z,5.74
2022-12-26T20:49:53.592Z,5.75
2022-12-26T20:52:20.297Z,5.63
2022-12-26T20:54:47.038Z,5.67
2022-12-26T20:57:13.596Z,5.75
2022-12-26T20:59:40.222Z,5.69
2022-12-26T21:02:14.397Z,5.72
2022-12-26T21:04:41.125Z,5.77
2022-12-26T21:07:07.759Z,5.73
2022-12-26T21:09:34.470Z,5.80
2022-12-26T21:12:01.050Z,5.86
2022-12-26T21:14:36.559Z,5.81
2022-12-26T21:17:03.214Z,5.80
2022-12-26T21:19:30.651Z,5.67
2022-12-26T21:21:57.443Z,5.76
2022-12-26T21:24:39.665Z,5.75
2022-12-26T21:27:06.236Z,5.83
2022-12-26T21:29:35.130Z,5.75
2022-12-26T21:32:03.178Z,5.75
2022-12-26T21:34:36.578Z,5.82
2022-12-26T21:37:21.854Z,5.66
2022-12-26T21:39:57.121Z,5.67
2022-12-26T21:42:23.647Z,5.59
2022-12-26T21:44:50.422Z,5.63
2022-12-26T21:47:17.047Z,5.66
2022-12-26T21:49:43.555Z,5.58
2022-12-26T21:52:17.973Z,5.56
2022-12-26T21:55:03.120Z,5.58
2022-12-26T21:57:35.237Z,5.46
2022-12-26T22:00:03.261Z,5.44
2022-12-26T22:02:53.620Z,5.29
2022-12-26T22:05:22.185Z,5.21
2022-12-26T22:07:56.391Z,5.28
2022-12-26T22:10:43.645Z,5.38
2022-12-26T22:13:10.475Z,5.30
2022-12-26T22:16:03.481Z,5.34
2022-12-26T22:18:43.403Z,5.24
2022-12-26T22:21:16.160Z,5.16
2022-12-26T22:23:44.058Z,5.23
2022-12-26T22:26:13.528Z,5.10
2022-12-26T22:28:40.212Z,5.05
2022-12-26T22:31:09.485Z,4.98
2022-12-26T22:33:36.064Z,4.91
2022-12-26T22:36:07.461Z,4.87
2022-12-26T22:38:35.002Z,4.76
2022-12-26T22:41:01.917Z,4.66
2022-12-26T22:43:29.807Z,4.61
2022-12-26T22:45:56.849Z,4.40
2022-12-26T22:48:24.424Z,4.35
2022-12-26T22:50:54.282Z,4.35
2022-12-26T22:53:37.239Z,4.30
2022-12-26T22:56:06.590Z,4.15
2022-12-26T22:58:34.326Z,4.09
2022-12-26T23:01:01.682Z,4.12
2022-12-26T23:03:35.640Z,4.15
2022-12-26T23:06:02.728Z,4.16
2022-12-26T23:08:29.595Z,4.15
2022-12-26T23:10:58.560Z,4.17
2022-12-26T23:13:25.999Z,4.19
2022-12-26T23:15:57.396Z,4.10
2022-12-26T23:18:59.562Z,4.16
2022-12-26T23:21:39.761Z,4.05
2022-12-26T23:24:24.049Z,4.05
2022-12-26T23:27:22.384Z,4.00
2022-12-26T23:30:09.221Z,4.04
2022-12-26T23:32:37.021Z,4.05
2022-12-26T23:35:05.484Z,4.02
2022-12-26T23:37:32.318Z,3.94
2022-12-26T23:39:58.883Z,3.80
2022-12-26T23:42:29.614Z,3.86
2022-12-26T23:44:56.172Z,3.61
2022-12-26T23:47:22.958Z,3.53
2022-12-26T23:49:49.448Z,3.41
2022-12-26T23:52:16.027Z,3.35
2022-12-26T23:54:42.684Z,3.23
2022-12-26T23:57:14.564Z,3.21
2022-12-26T23:59:41.083Z,3.20
